createdAt,value
2019-02-22T00:02:28.903Z,54.00
2019-02-22T00:05:18.756Z,55.20
2019-02-22T00:08:02.222Z,55.80
2019-02-22T00:10:39.358Z,56.60
2019-02-22T00:13:20.359Z,57.40
2019-02-22T00:16:05.325Z,57.60
2019-02-22T00:18:47.799Z,58.10
2019-02-22T00:21:26.673Z,58.40
2019-02-22T00:24:09.791Z,59.00
2019-02-22T00:26:48.838Z,59.20
2019-02-22T00:29:30.867Z,59.40
2019-02-22T00:32:12.237Z,59.60
2019-02-22T00:35:01.778Z,59.60
2019-02-22T00:37:41.968Z,59.30
2019-02-22T00:43:24.271Z,59.30
2019-02-22T00:46:02.438Z,59.40
2019-02-22T00:48:49.743Z,59.40
2019-02-22T00:51:23.743Z,58.50
2019-02-22T00:54:10.345Z,59.30
2019-02-22T00:56:52.074Z,59.40
2019-02-22T00:59:30.975Z,59.30
2019-02-22T01:02:13.347Z,58.50
2019-02-22T01:04:51.790Z,58.60
2019-02-22T01:07:28.793Z,58.60
2019-02-22T01:10:08.096Z,58.50
2019-02-22T01:12:57.382Z,58.10
2019-02-22T01:15:41.456Z,57.80
2019-02-22T01:18:23.582Z,57.60
2019-02-22T01:21:04.555Z,57.50
2019-02-22T01:23:46.286Z,57.10
2019-02-22T01:26:24.105Z,56.60
2019-02-22T01:29:02.110Z,57.00
2019-02-22T01:31:41.644Z,56.30
2019-02-22T01:34:23.959Z,55.70
2019-02-22T01:37:08.440Z,55.80
2019-02-22T01:39:48.758Z,55.50
2019-02-22T01:42:29.058Z,55.00
2019-02-22T01:45:08.644Z,55.20
2019-02-22T01:47:46.191Z,55.40
2019-02-22T01:50:30.664Z,55.80
2019-02-22T01:53:12.366Z,55.70
2019-02-22T01:58:36.062Z,55.30
2019-02-22T02:01:15.072Z,55.60
2019-02-22T02:03:54.969Z,55.50
2019-02-22T02:06:35.546Z,55.50
2019-02-22T02:09:21.488Z,55.70
2019-02-22T02:14:56.743Z,54.80
2019-02-22T02:17:41.600Z,55.20
2019-02-22T02:20:20.602Z,55.30
2019-02-22T02:23:04.405Z,55.10
2019-02-22T02:25:47.839Z,55.20
2019-02-22T02:28:31.652Z,55.50
2019-02-22T02:31:17.596Z,55.50
2019-02-22T02:34:03.779Z,55.60
2019-02-22T02:36:46.701Z,55.60
2019-02-22T02:39:27.258Z,55.60
2019-02-22T02:42:13.087Z,55.70
2019-02-22T02:44:54.112Z,56.20
2019-02-22T02:47:32.312Z,56.30
2019-02-22T02:50:14.720Z,56.40
2019-02-22T02:53:01.315Z,55.70
2019-02-22T02:55:42.441Z,55.00
2019-02-22T02:58:24.022Z,54.40
2019-02-22T03:01:08.982Z,54.30
2019-02-22T03:03:52.613Z,54.20
2019-02-22T03:06:38.919Z,53.70
2019-02-22T03:09:16.402Z,53.20
2019-02-22T03:12:02.606Z,52.60
2019-02-22T03:14:39.824Z,52.10
2019-02-22T03:17:22.195Z,52.00
2019-02-22T03:20:02.319Z,51.80
2019-02-22T03:22:40.700Z,52.40
2019-02-22T03:25:22.425Z,52.40
2019-02-22T03:28:00.592Z,55.00
2019-02-22T03:30:41.629Z,56.40
2019-02-22T03:33:24.024Z,57.30
2019-02-22T03:36:11.615Z,58.30
2019-02-22T03:38:57.198Z,59.40
2019-02-22T03:41:36.830Z,60.50
2019-02-22T03:44:16.403Z,62.70
2019-02-22T03:46:56.734Z,63.30
2019-02-22T03:49:38.406Z,64.00
2019-02-22T03:52:22.236Z,63.80
2019-02-22T03:55:07.410Z,64.50
2019-02-22T03:57:55.773Z,64.90
2019-02-22T04:00:31.542Z,64.70
2019-02-22T04:03:12.510Z,64.40
2019-02-22T04:05:53.511Z,65.10
2019-02-22T04:08:35.940Z,64.30
2019-02-22T04:11:15.529Z,63.20
2019-02-22T04:13:55.844Z,63.20
2019-02-22T04:16:41.712Z,63.10
2019-02-22T04:19:25.297Z,63.60
2019-02-22T04:22:17.716Z,63.50
2019-02-22T04:24:57.369Z,63.70
2019-02-22T04:27:39.423Z,63.90
2019-02-22T04:30:20.723Z,63.90
2019-02-22T04:33:02.451Z,63.70
2019-02-22T04:35:43.007Z,63.30
2019-02-22T04:38:21.651Z,63.00
2019-02-22T04:41:00.551Z,62.40
2019-02-22T04:43:42.926Z,62.50
2019-02-22T04:46:22.554Z,63.20
2019-02-22T04:49:07.756Z,62.80
2019-02-22T04:51:51.555Z,62.20
2019-02-22T04:54:34.658Z,61.80
2019-02-22T04:57:14.931Z,60.90
2019-02-22T05:00:00.336Z,60.10
2019-02-22T05:02:41.831Z,59.30
2019-02-22T05:05:22.180Z,59.30
2019-02-22T05:08:00.787Z,58.30
2019-02-22T05:10:44.863Z,57.60
2019-02-22T05:13:26.569Z,57.30
2019-02-22T05:16:11.910Z,57.70
2019-02-22T05:18:53.467Z,58.20
2019-02-22T05:21:31.063Z,57.60
2019-02-22T05:24:09.917Z,58.70
2019-02-22T05:26:51.567Z,59.00
2019-02-22T05:29:36.070Z,59.20
2019-02-22T05:32:19.842Z,59.20
2019-02-22T05:35:01.139Z,60.00
2019-02-22T05:37:46.052Z,60.20
2019-02-22T05:40:31.989Z,61.10
2019-02-22T05:43:10.846Z,61.90
2019-02-22T05:45:53.974Z,62.90
2019-02-22T05:48:30.775Z,62.70
2019-02-22T05:51:08.302Z,62.80
2019-02-22T05:53:53.497Z,62.90
2019-02-22T05:56:36.529Z,62.80
2019-02-22T05:59:19.695Z,65.30
2019-02-22T06:02:01.352Z,66.20
2019-02-22T06:04:38.881Z,64.50
2019-02-22T06:07:20.429Z,62.90
2019-02-22T06:09:59.365Z,59.00
2019-02-22T06:12:38.355Z,61.30
2019-02-22T06:15:24.284Z,57.90
2019-02-22T06:18:06.783Z,58.70
2019-02-22T06:20:47.703Z,58.80
2019-02-22T06:23:30.762Z,54.80
2019-02-22T06:26:13.159Z,54.40
2019-02-22T06:28:54.120Z,54.20
2019-02-22T06:31:35.297Z,54.30
2019-02-22T06:34:13.731Z,54.40
2019-02-22T06:37:01.975Z,55.50
2019-02-22T06:39:35.363Z,56.60
2019-02-22T06:42:16.863Z,56.30
2019-02-22T06:44:57.365Z,56.50
2019-02-22T06:47:36.995Z,56.50
2019-02-22T06:50:19.280Z,56.90
2019-02-22T06:52:58.267Z,59.40
2019-02-22T06:55:41.349Z,59.00
2019-02-22T06:58:24.467Z,56.20
2019-02-22T07:01:04.098Z,56.40
2019-02-22T07:03:45.214Z,55.90
2019-02-22T07:06:28.168Z,55.60
2019-02-22T07:09:11.267Z,55.80
2019-02-22T07:11:54.372Z,54.50
2019-02-22T07:14:38.201Z,54.20
2019-02-22T07:17:18.502Z,53.20
2019-02-22T07:20:00.873Z,52.90
2019-02-22T07:22:47.473Z,52.20
2019-02-22T07:25:28.305Z,52.10
2019-02-22T07:28:10.756Z,52.00
2019-02-22T07:30:48.865Z,52.20
2019-02-22T07:33:33.795Z,52.50
2019-02-22T07:36:11.814Z,53.80
2019-02-22T07:38:54.256Z,54.20
2019-02-22T07:41:32.269Z,54.30
2019-02-22T07:44:08.475Z,54.30
2019-02-22T07:46:49.589Z,53.90
2019-02-22T07:49:27.753Z,53.10
2019-02-22T07:52:09.818Z,52.50
2019-02-22T07:54:55.985Z,52.20
2019-02-22T07:57:34.183Z,51.90
2019-02-22T08:00:17.282Z,51.80
2019-02-22T08:02:58.312Z,51.90
2019-02-22T08:05:40.713Z,51.60
2019-02-22T08:08:23.058Z,50.70
2019-02-22T08:11:02.277Z,50.20
2019-02-22T08:13:43.435Z,49.20
2019-02-22T08:16:17.888Z,48.60
2019-02-22T08:19:01.024Z,48.00
2019-02-22T08:21:26.426Z,47.00
2019-02-22T08:24:08.441Z,46.00
2019-02-22T08:26:46.994Z,45.00
2019-02-22T08:29:26.621Z,45.00
2019-02-22T08:32:06.223Z,45.90
2019-02-22T08:34:47.223Z,45.40
2019-02-22T08:37:24.303Z,44.40
2019-02-22T08:40:07.824Z,44.10
2019-02-22T08:42:50.630Z,44.40
2019-02-22T08:45:27.235Z,43.50
2019-02-22T08:48:11.187Z,42.70
2019-02-22T08:50:57.398Z,44.10
2019-02-22T08:53:36.261Z,42.90
2019-02-22T08:56:16.630Z,41.60
2019-02-22T08:58:58.756Z,41.30
2019-02-22T09:01:39.417Z,40.80
2019-02-22T09:04:21.732Z,40.10
2019-02-22T09:07:04.128Z,37.40
2019-02-22T09:09:46.535Z,37.50
2019-02-22T09:12:26.236Z,38.60
2019-02-22T09:15:12.593Z,36.60
2019-02-22T09:17:56.582Z,36.70
2019-02-22T09:20:41.038Z,35.10
2019-02-22T09:23:19.939Z,34.10
2019-02-22T09:26:04.224Z,34.00
2019-02-22T09:28:45.412Z,32.50
2019-02-22T09:31:25.710Z,30.90
2019-02-22T09:34:06.940Z,30.10
2019-02-22T09:36:47.013Z,31.10
2019-02-22T09:39:35.026Z,30.40
2019-02-22T09:42:13.217Z,28.70
2019-02-22T09:44:55.429Z,28.60
2019-02-22T09:47:34.420Z,28.20
2019-02-22T09:50:21.276Z,27.70
2019-02-22T09:53:00.049Z,26.70
2019-02-22T09:55:41.049Z,28.10
2019-02-22T09:58:21.405Z,27.70
2019-02-22T10:01:04.452Z,27.40
2019-02-22T10:03:51.752Z,26.30
2019-02-22T10:06:35.556Z,24.30
2019-02-22T10:09:15.124Z,23.80
2019-02-22T10:11:56.155Z,23.10
2019-02-22T10:14:37.856Z,22.20
2019-02-22T10:17:20.257Z,21.50
2019-02-22T10:20:06.860Z,21.60
2019-02-22T10:22:54.042Z,21.40
2019-02-22T10:25:33.689Z,20.20
2019-02-22T10:28:18.339Z,19.10
2019-02-22T10:31:02.069Z,18.50
2019-02-22T10:33:48.663Z,18.80
2019-02-22T10:36:31.732Z,20.10
2019-02-22T10:39:13.466Z,19.60
2019-02-22T10:41:55.866Z,20.50
2019-02-22T10:44:40.573Z,20.70
2019-02-22T10:47:24.208Z,21.30
2019-02-22T10:50:04.868Z,22.00
2019-02-22T10:52:42.708Z,21.40
2019-02-22T10:55:26.445Z,21.80
2019-02-22T10:58:10.243Z,22.20
2019-02-22T11:00:49.173Z,22.40
2019-02-22T11:03:29.147Z,23.00
2019-02-22T11:06:08.652Z,23.30
2019-02-22T11:08:47.645Z,23.40
2019-02-22T11:11:29.676Z,23.50
2019-02-22T11:14:09.979Z,23.50
2019-02-22T11:16:47.689Z,23.00
2019-02-22T11:19:24.928Z,22.70
2019-02-22T11:22:05.840Z,22.30
2019-02-22T11:24:44.152Z,22.10
2019-02-22T11:27:20.885Z,22.70
2019-02-22T11:29:59.883Z,23.30
2019-02-22T11:32:38.751Z,22.90
2019-02-22T11:35:16.986Z,23.20
2019-02-22T11:37:54.453Z,23.70
2019-02-22T11:40:35.511Z,24.00
2019-02-22T11:43:13.209Z,24.30
2019-02-22T11:45:55.360Z,25.30
2019-02-22T11:48:33.557Z,25.60
2019-02-22T11:51:14.558Z,25.20
2019-02-22T11:53:52.718Z,26.70
2019-02-22T11:56:30.409Z,25.90
2019-02-22T11:59:08.053Z,25.50
2019-02-22T12:01:49.287Z,27.20
2019-02-22T12:04:27.002Z,26.30
2019-02-22T12:07:10.780Z,26.30
2019-02-22T12:09:51.096Z,26.40
2019-02-22T12:12:32.238Z,26.70
2019-02-22T12:15:15.867Z,27.40
2019-02-22T12:17:53.365Z,27.80
2019-02-22T12:20:34.311Z,28.00
2019-02-22T12:23:14.701Z,27.70
2019-02-22T12:25:54.272Z,28.50
2019-02-22T12:28:37.401Z,28.80
2019-02-22T12:31:18.401Z,29.20
2019-02-22T12:34:02.004Z,28.90
2019-02-22T12:36:48.158Z,29.50
2019-02-22T12:39:31.938Z,30.00
2019-02-22T12:42:13.683Z,30.10
2019-02-22T12:45:02.455Z,30.50
2019-02-22T12:47:35.639Z,31.40
2019-02-22T12:50:20.507Z,30.20
2019-02-22T12:53:04.604Z,29.60
2019-02-22T12:55:46.277Z,29.70
2019-02-22T12:58:30.806Z,29.60
2019-02-22T13:01:11.806Z,29.40
2019-02-22T13:03:52.737Z,29.90
2019-02-22T13:06:32.796Z,28.70
2019-02-22T13:09:17.455Z,28.40
2019-02-22T13:11:57.910Z,28.90
2019-02-22T13:14:46.143Z,28.10
2019-02-22T13:17:30.812Z,27.20
2019-02-22T13:20:14.908Z,27.10
2019-02-22T13:23:02.209Z,26.70
2019-02-22T13:25:41.840Z,27.00
2019-02-22T13:28:24.257Z,26.90
2019-02-22T13:31:17.704Z,26.10
2019-02-22T13:33:56.744Z,26.60
2019-02-22T13:36:36.983Z,26.10
2019-02-22T13:39:20.111Z,26.30
2019-02-22T13:41:59.684Z,26.30
2019-02-22T13:44:39.280Z,26.40
2019-02-22T13:47:16.785Z,26.40
2019-02-22T13:49:59.214Z,26.00
2019-02-22T13:52:46.486Z,26.90
2019-02-22T13:55:26.814Z,26.70
2019-02-22T13:58:09.186Z,26.00
2019-02-22T14:00:50.886Z,25.90
2019-02-22T14:03:32.941Z,26.50
2019-02-22T14:06:15.733Z,25.60
2019-02-22T14:08:57.605Z,25.70
2019-02-22T14:11:39.254Z,25.10
2019-02-22T14:14:18.781Z,25.50
2019-02-22T14:16:58.289Z,24.90
2019-02-22T14:19:37.890Z,24.80
2019-02-22T14:22:21.719Z,24.80
2019-02-22T14:25:00.619Z,24.70
2019-02-22T14:27:39.911Z,24.90
2019-02-22T14:30:21.220Z,24.60
2019-02-22T14:33:00.124Z,25.20
2019-02-22T14:35:43.890Z,25.70
2019-02-22T14:38:23.603Z,24.60
2019-02-22T14:41:05.901Z,24.30
2019-02-22T14:43:45.523Z,24.20
2019-02-22T14:46:31.424Z,24.20
2019-02-22T14:49:14.496Z,23.80
2019-02-22T14:51:54.125Z,24.20
2019-02-22T14:54:33.726Z,24.10
2019-02-22T14:57:15.193Z,24.20
2019-02-22T14:59:55.699Z,24.80
2019-02-22T15:02:36.700Z,25.50
2019-02-22T15:05:18.475Z,25.80
2019-02-22T15:08:09.213Z,26.10
2019-02-22T15:10:45.561Z,26.10
2019-02-22T15:13:21.248Z,26.60
2019-02-22T15:16:15.736Z,26.40
2019-02-22T15:18:59.268Z,27.00
2019-02-22T15:21:42.539Z,26.70
2019-02-22T15:24:20.834Z,27.20
2019-02-22T15:27:00.435Z,27.00
2019-02-22T15:29:42.836Z,27.20
2019-02-22T15:32:23.615Z,27.20
2019-02-22T15:35:05.538Z,27.70
2019-02-22T15:37:50.745Z,27.80
2019-02-22T15:40:26.810Z,28.00
2019-02-22T15:43:09.240Z,27.60
2019-02-22T15:45:50.646Z,28.20
2019-02-22T15:48:29.928Z,28.10
2019-02-22T15:51:15.749Z,28.00
2019-02-22T15:54:01.809Z,28.40
2019-02-22T15:56:44.044Z,28.50
2019-02-22T15:59:27.145Z,28.50
2019-02-22T16:02:08.117Z,28.60
2019-02-22T16:04:51.215Z,29.30
2019-02-22T16:07:44.020Z,29.40
2019-02-22T16:10:15.389Z,30.00
2019-02-22T16:12:57.017Z,29.90
2019-02-22T16:15:40.686Z,30.00
2019-02-22T16:18:20.897Z,30.50
2019-02-22T16:21:00.051Z,30.90
2019-02-22T16:23:39.625Z,30.90
2019-02-22T16:26:18.579Z,31.10
2019-02-22T16:29:05.276Z,31.70
2019-02-22T16:31:51.504Z,32.20
2019-02-22T16:34:42.862Z,32.70
2019-02-22T16:37:15.689Z,33.40
2019-02-22T16:39:52.497Z,33.60
2019-02-22T16:42:35.490Z,34.10
2019-02-22T16:45:19.280Z,34.20
2019-02-22T16:48:04.062Z,34.90
2019-02-22T16:50:47.860Z,34.90
2019-02-22T16:53:30.963Z,35.20
2019-02-22T16:56:13.363Z,35.80
2019-02-22T16:59:03.177Z,36.90
2019-02-22T17:01:43.461Z,37.70
2019-02-22T17:04:29.665Z,37.40
2019-02-22T17:07:09.934Z,37.10
2019-02-22T17:09:47.469Z,37.20
2019-02-22T17:12:30.545Z,37.50
2019-02-22T17:15:12.095Z,37.50
2019-02-22T17:17:52.573Z,38.20
2019-02-22T17:20:37.770Z,38.40
2019-02-22T17:23:25.232Z,37.80
2019-02-22T17:26:06.041Z,37.80
2019-02-22T17:28:49.175Z,38.00
2019-02-22T17:31:33.646Z,38.10
2019-02-22T17:34:14.849Z,38.20
2019-02-22T17:36:56.375Z,38.40
2019-02-22T17:39:40.315Z,38.80
2019-02-22T17:42:22.549Z,38.90
2019-02-22T17:45:00.745Z,39.50
2019-02-22T17:47:43.007Z,39.30
2019-02-22T17:50:26.665Z,40.90
2019-02-22T17:53:05.880Z,41.30
2019-02-22T17:55:49.753Z,41.60
2019-02-22T17:58:33.611Z,41.40
2019-02-22T18:01:12.382Z,41.70
2019-02-22T18:03:50.850Z,42.40
2019-02-22T18:06:34.228Z,42.50
2019-02-22T18:09:11.937Z,42.80
2019-02-22T18:11:51.538Z,43.70
2019-02-22T18:14:31.062Z,43.80
2019-02-22T18:17:09.529Z,44.10
2019-02-22T18:19:48.390Z,44.40
2019-02-22T18:22:28.859Z,44.10
2019-02-22T18:25:11.644Z,44.70
2019-02-22T18:27:51.895Z,44.90
2019-02-22T18:30:32.197Z,45.10
2019-02-22T18:33:13.863Z,44.80
2019-02-22T18:35:53.493Z,44.60
2019-02-22T18:38:36.165Z,44.00
2019-02-22T18:41:26.695Z,43.30
2019-02-22T18:44:05.564Z,42.70
2019-02-22T18:46:49.396Z,42.40
2019-02-22T18:49:37.814Z,42.30
2019-02-22T18:52:12.799Z,42.30
2019-02-22T18:54:54.771Z,41.80
2019-02-22T18:57:36.872Z,41.90
2019-02-22T19:00:23.501Z,42.20
2019-02-22T19:03:04.477Z,42.10
2019-02-22T19:05:55.024Z,42.00
2019-02-22T19:08:39.804Z,42.00
2019-02-22T19:11:23.573Z,52.60
2019-02-22T19:14:03.205Z,52.50
2019-02-22T19:16:49.075Z,43.90
2019-02-22T19:19:28.708Z,39.40
2019-02-22T19:22:13.209Z,38.60
2019-02-22T19:24:54.729Z,38.60
2019-02-22T19:27:35.299Z,38.90
2019-02-22T19:30:12.533Z,39.00
2019-02-22T19:32:52.985Z,40.20
2019-02-22T19:35:34.286Z,40.60
2019-02-22T19:38:17.813Z,40.60
2019-02-22T19:40:58.018Z,40.70
2019-02-22T19:43:42.772Z,41.20
2019-02-22T19:46:24.315Z,41.80
2019-02-22T19:49:03.216Z,41.80
2019-02-22T19:51:42.181Z,42.50
2019-02-22T19:54:29.391Z,42.60
2019-02-22T19:57:16.019Z,43.50
2019-02-22T20:00:00.523Z,43.90
2019-02-22T20:02:47.793Z,43.80
2019-02-22T20:05:30.222Z,43.90
2019-02-22T20:08:09.095Z,45.10
2019-02-22T20:10:53.640Z,45.80
2019-02-22T20:13:38.751Z,46.70
2019-02-22T20:16:21.988Z,47.30
2019-02-22T20:19:05.027Z,47.80
2019-02-22T20:21:46.649Z,47.90
2019-02-22T20:24:28.640Z,48.80
2019-02-22T20:27:10.828Z,49.10
2019-02-22T20:29:50.129Z,49.30
2019-02-22T20:32:33.531Z,49.10
2019-02-22T20:35:26.431Z,49.40
2019-02-22T20:38:09.668Z,49.70
2019-02-22T20:40:49.833Z,50.70
2019-02-22T20:43:30.134Z,51.30
2019-02-22T20:46:13.207Z,52.20
2019-02-22T20:49:00.749Z,52.90
2019-02-22T20:51:35.938Z,53.40
2019-02-22T20:54:17.122Z,53.40
2019-02-22T20:57:02.074Z,54.00
2019-02-22T20:59:46.608Z,54.20
2019-02-22T21:02:29.044Z,54.50
2019-02-22T21:05:10.837Z,55.10
2019-02-22T21:07:52.322Z,55.70
2019-02-22T21:10:32.756Z,55.90
2019-02-22T21:13:13.712Z,55.40
2019-02-22T21:15:56.813Z,54.80
2019-02-22T21:18:40.619Z,54.80
2019-02-22T21:21:23.015Z,55.40
2019-02-22T21:24:03.043Z,56.30
2019-02-22T21:26:44.348Z,56.80
2019-02-22T21:29:33.505Z,56.80
2019-02-22T21:32:12.888Z,57.30
2019-02-22T21:34:53.052Z,57.30
2019-02-22T21:37:34.625Z,57.20
2019-02-22T21:40:20.618Z,57.30
2019-02-22T21:42:58.722Z,57.80
2019-02-22T21:45:38.853Z,57.90
2019-02-22T21:48:26.949Z,58.00
2019-02-22T21:50:59.170Z,57.70
2019-02-22T21:53:39.928Z,58.20
2019-02-22T21:56:20.642Z,58.60
2019-02-22T21:59:07.558Z,59.50
2019-02-22T22:01:45.728Z,59.50
2019-02-22T22:04:28.160Z,60.00
2019-02-22T22:07:08.034Z,60.70
2019-02-22T22:09:48.348Z,60.80
2019-02-22T22:12:33.166Z,60.80
2019-02-22T22:15:13.534Z,60.90
2019-02-22T22:17:52.504Z,61.10
2019-02-22T22:20:35.538Z,61.60
2019-02-22T22:23:18.619Z,61.80
2019-02-22T22:25:54.842Z,61.90
2019-02-22T22:28:36.469Z,63.20
2019-02-22T22:31:20.969Z,63.40
2019-02-22T22:34:02.677Z,63.80
2019-02-22T22:36:43.643Z,73.10
2019-02-22T22:39:27.938Z,63.70
2019-02-22T22:42:11.881Z,64.00
2019-02-22T22:44:49.445Z,64.60
2019-02-22T22:47:30.446Z,64.90
2019-02-22T22:50:08.724Z,64.80
2019-02-22T22:52:48.420Z,65.30
2019-02-22T22:55:28.576Z,64.90
2019-02-22T22:58:06.077Z,66.30
2019-02-22T23:00:54.051Z,66.10
2019-02-22T23:03:33.680Z,66.10
2019-02-22T23:06:13.980Z,66.60
2019-02-22T23:08:58.453Z,67.20
2019-02-22T23:11:45.127Z,67.70
2019-02-22T23:14:27.894Z,67.30
2019-02-22T23:17:10.609Z,67.30
2019-02-22T23:19:49.452Z,68.20
2019-02-22T23:22:24.636Z,68.30
2019-02-22T23:25:07.286Z,68.50
2019-02-22T23:27:50.271Z,68.30
2019-02-22T23:30:36.242Z,68.40
2019-02-22T23:33:17.988Z,68.10
2019-02-22T23:36:02.489Z,68.00
2019-02-22T23:38:44.863Z,68.00
2019-02-22T23:41:21.783Z,67.60
2019-02-22T23:43:58.920Z,67.70
2019-02-22T23:46:36.411Z,67.20
2019-02-22T23:49:15.566Z,67.70
2019-02-22T23:52:01.468Z,67.40
2019-02-22T23:54:45.301Z,67.00
2019-02-22T23:57:22.096Z,67.20
